Time;durP1;ratioP1;P1;durP2;ratioP2;P2;SDS_P1;SDS_P2;PMS_P1;PMS_P2;Temp;Humidity;BMP_temperature;BMP_pressure;BME280_temperature;BME280_humidity;BME280_pressure;Samples;Min_cycle;Max_cycle;Signal;HPM_P1;HPM_P2
2022/08/11 00:01:43;;;;;;;3.60;2.10;;;;;;;16.91;69.27;96713.03;5018212;28;20214;-70
2022/08/11 00:04:12;;;;;;;4.30;2.17;;;;;;;17.08;68.98;96710.78;5017471;28;20272;-70
2022/08/11 00:06:40;;;;;;;3.75;2.40;;;;;;;17.09;69.32;96706.09;5018145;28;20206;-70
2022/08/11 00:09:10;;;;;;;2.47;1.83;;;;;;;17.08;69.02;96709.75;5017871;28;20216;-70
2022/08/11 00:11:39;;;;;;;3.08;2.25;;;;;;;16.93;69.80;96708.34;5017915;28;20232;-70
2022/08/11 00:14:15;;;;;;;4.75;2.42;;;;;;;16.93;69.56;96704.81;5016986;28;20238;-70
2022/08/11 00:16:43;;;;;;;2.95;2.35;;;;;;;16.80;69.87;96702.16;5017936;28;20292;-70
2022/08/11 00:19:11;;;;;;;4.28;2.35;;;;;;;16.77;69.42;96700.72;5018288;28;21314;-70
2022/08/11 00:21:43;;;;;;;3.58;2.42;;;;;;;16.52;70.32;96705.00;5018050;28;20233;-70
2022/08/11 00:24:10;;;;;;;3.22;2.47;;;;;;;16.64;70.15;96695.41;5017068;28;20230;-70
2022/08/11 00:26:37;;;;;;;4.35;2.10;;;;;;;16.55;70.53;96701.94;5018378;28;20598;-70
2022/08/11 00:29:10;;;;;;;5.35;2.38;;;;;;;16.63;70.14;96699.06;5018527;28;20206;-71
2022/08/11 00:31:37;;;;;;;2.65;2.10;;;;;;;16.52;70.65;96706.84;5018145;28;20202;-71
2022/08/11 00:34:10;;;;;;;3.38;2.13;;;;;;;16.72;70.05;96699.72;5017505;28;20218;-70
2022/08/11 00:36:42;;;;;;;5.93;1.98;;;;;;;16.62;70.67;96697.47;5017897;28;20985;-71
2022/08/11 00:39:11;;;;;;;2.72;1.90;;;;;;;16.46;70.60;96697.03;5017787;28;20544;-70
2022/08/11 00:41:47;;;;;;;3.58;2.20;;;;;;;16.41;70.70;96699.47;5017879;28;20297;-70
2022/08/11 00:44:28;;;;;;;5.18;2.40;;;;;;;16.25;71.57;96704.28;5017464;28;20229;-72
2022/08/11 00:47:09;;;;;;;3.05;2.40;;;;;;;16.09;71.92;96697.50;5017546;28;20375;-71
2022/08/11 00:49:47;;;;;;;5.95;2.45;;;;;;;16.21;72.11;96703.06;5018182;28;20297;-70
2022/08/11 00:52:26;;;;;;;4.10;2.15;;;;;;;16.12;72.15;96694.44;5017016;28;20230;-70
2022/08/11 00:55:25;;;;;;;4.13;2.28;;;;;;;16.23;71.66;96691.19;5014621;28;20725;-71
2022/08/11 00:58:37;;;;;;;4.15;2.45;;;;;;;16.27;71.56;96699.63;5018449;28;20209;-71
2022/08/11 01:01:10;;;;;;;2.95;2.20;;;;;;;16.27;71.57;96692.47;5017485;28;20205;-70
2022/08/11 01:03:59;;;;;;;5.57;2.80;;;;;;;16.20;72.05;96691.59;5016600;28;20222;-70
2022/08/11 01:06:45;;;;;;;5.10;2.17;;;;;;;15.97;72.09;96692.94;5017529;28;20209;-70
2022/08/11 01:09:27;;;;;;;4.80;2.55;;;;;;;16.09;71.94;96684.22;5017930;28;20620;-70
2022/08/11 01:12:13;;;;;;;4.20;2.53;;;;;;;16.09;72.11;96699.34;5016910;28;20206;-70
2022/08/11 01:15:12;;;;;;;3.72;2.58;;;;;;;16.03;72.47;96685.00;5017628;28;20226;-70
2022/08/11 01:18:17;;;;;;;3.35;2.38;;;;;;;16.19;71.67;96695.28;5017332;28;20260;-71
2022/08/11 01:21:10;;;;;;;3.38;2.55;;;;;;;16.01;71.76;96689.72;5017211;28;20347;-71
2022/08/11 01:24:14;;;;;;;2.42;2.17;;;;;;;16.08;72.01;96695.84;5016066;28;20226;-71
2022/08/11 01:27:16;;;;;;;4.30;2.60;;;;;;;16.28;70.87;96694.13;5016955;28;20813;-71
2022/08/11 01:30:18;;;;;;;3.75;2.60;;;;;;;16.26;71.99;96696.16;5016772;28;20217;-71
2022/08/11 01:33:18;;;;;;;4.15;2.53;;;;;;;16.33;71.17;96697.00;5012927;28;20344;-71
2022/08/11 01:36:22;;;;;;;3.60;2.45;;;;;;;16.45;70.92;96700.69;5016793;28;20641;-70
2022/08/11 01:39:26;;;;;;;4.85;2.70;;;;;;;16.29;71.11;96695.72;5016923;28;20232;-70
2022/08/11 01:45:27;;;;;;;6.07;2.67;;;;;;;16.34;70.10;96681.84;5013962;28;20252;-70
2022/08/11 01:48:02;;;;;;;4.40;2.40;;;;;;;16.30;70.57;96685.94;5016609;28;21061;-70
2022/08/11 01:50:45;;;;;;;4.72;2.40;;;;;;;16.32;70.95;96684.72;5016678;28;20597;-71
2022/08/11 01:53:23;;;;;;;3.92;2.70;;;;;;;16.23;70.74;96688.53;5013263;28;20341;-71
2022/08/11 01:56:01;;;;;;;7.63;2.63;;;;;;;16.31;70.46;96692.91;5016525;28;20217;-71
2022/08/11 01:58:36;;;;;;;4.30;2.83;;;;;;;16.28;70.67;96677.31;5016744;28;20209;-71
2022/08/11 02:01:16;;;;;;;6.03;2.63;;;;;;;16.36;70.57;96685.13;5017006;28;20212;-70
2022/08/11 02:03:53;;;;;;;4.18;2.55;;;;;;;16.35;70.91;96681.63;5016596;28;20308;-70
2022/08/11 02:09:29;;;;;;;4.18;2.53;;;;;;;16.27;71.71;96675.69;5016342;28;20637;-70
2022/08/11 02:12:02;;;;;;;3.85;2.95;;;;;;;16.06;71.45;96678.47;5014026;28;20214;-70
2022/08/11 02:14:34;;;;;;;4.15;2.75;;;;;;;16.17;71.72;96676.03;5015914;28;20218;-70
2022/08/11 02:17:13;;;;;;;3.60;2.65;;;;;;;16.19;71.75;96673.19;5017941;28;20229;-71
2022/08/11 02:25:35;;;;;;;6.57;2.47;;;;;;;16.03;71.87;96658.41;5021050;28;20216;-70
2022/08/11 02:28:08;;;;;;;3.60;2.75;;;;;;;15.85;72.20;96667.97;5020202;28;20201;-70
2022/08/11 02:30:39;;;;;;;3.72;2.78;;;;;;;15.78;73.49;96658.31;5020380;28;20698;-70
2022/08/11 02:33:23;;;;;;;3.45;2.85;;;;;;;15.80;73.58;96661.63;5019463;28;20256;-71
2022/08/11 02:35:58;;;;;;;8.88;3.03;;;;;;;15.92;73.21;96661.66;5020067;28;20217;-71
2022/08/11 02:38:30;;;;;;;4.35;2.80;;;;;;;15.94;72.58;96659.59;5020092;28;20214;-71
2022/08/11 02:41:03;;;;;;;4.80;2.90;;;;;;;15.84;73.31;96657.53;5020155;28;20205;-70
2022/08/11 02:43:42;;;;;;;5.03;3.08;;;;;;;15.71;73.95;96662.81;5018983;28;20233;-70
2022/08/11 02:46:23;;;;;;;4.13;3.00;;;;;;;15.92;73.91;96660.81;5019875;28;20213;-70
2022/08/11 02:51:59;;;;;;;5.32;2.88;;;;;;;15.67;74.23;96661.53;5019787;28;20213;-70
2022/08/11 02:54:31;;;;;;;4.85;3.17;;;;;;;15.65;74.88;96660.94;5016437;28;20229;-71
2022/08/11 02:57:04;;;;;;;5.47;3.17;;;;;;;15.72;74.39;96659.94;5020179;28;20202;-70
2022/08/11 02:59:53;;;;;;;6.95;3.10;;;;;;;15.70;74.49;96661.97;5019720;28;20206;-71
2022/08/11 03:02:31;;;;;;;4.20;2.90;;;;;;;15.78;74.17;96664.44;5019040;28;20855;-70
2022/08/11 03:05:12;;;;;;;5.68;2.97;;;;;;;15.71;74.88;96663.63;5019759;28;20221;-71
2022/08/11 03:07:49;;;;;;;4.13;3.13;;;;;;;15.70;74.59;96666.47;5019460;28;20221;-71
2022/08/11 03:10:21;;;;;;;4.57;3.40;;;;;;;15.64;75.02;96661.94;5019885;28;20213;-70
2022/08/11 03:18:39;;;;;;;5.25;3.38;;;;;;;15.74;74.79;96654.44;5019995;28;20272;-70
2022/08/11 03:21:13;;;;;;;5.03;3.70;;;;;;;15.69;74.84;96662.19;5018908;28;20212;-70
2022/08/11 03:23:49;;;;;;;5.18;3.80;;;;;;;15.56;75.02;96654.97;5018821;28;20312;-70
2022/08/11 03:26:26;;;;;;;5.88;3.78;;;;;;;15.60;74.77;96660.69;5019926;28;20212;-71
2022/08/11 03:29:04;;;;;;;6.13;3.45;;;;;;;15.62;74.88;96659.50;5017778;28;20205;-71
2022/08/11 03:31:35;;;;;;;5.15;3.53;;;;;;;15.52;75.44;96658.22;5018687;28;20218;-70
2022/08/11 03:34:06;;;;;;;5.30;3.60;;;;;;;15.56;75.68;96654.16;5018312;28;20230;-70
2022/08/11 03:37:10;;;;;;;4.50;3.00;;;;;;;15.60;75.08;96655.38;5019172;28;20678;-70
2022/08/11 03:39:55;;;;;;;5.13;3.00;;;;;;;15.55;74.57;96655.97;5019085;28;20271;-70
2022/08/11 03:42:27;;;;;;;4.30;3.08;;;;;;;15.44;75.06;96661.00;5018530;28;20213;-70
2022/08/11 03:45:07;;;;;;;4.90;3.35;;;;;;;15.38;75.55;96661.81;5019432;28;20233;-70
2022/08/11 03:47:48;;;;;;;5.80;3.67;;;;;;;15.39;75.99;96663.47;5018710;28;20206;-70
2022/08/11 03:50:27;;;;;;;7.70;3.38;;;;;;;15.35;76.53;96662.19;5018784;28;20698;-70
2022/08/11 03:53:05;;;;;;;7.20;3.80;;;;;;;15.39;76.16;96668.78;5018287;28;20244;-71
2022/08/11 03:55:56;;;;;;;4.45;3.15;;;;;;;15.34;76.41;96674.66;5016320;28;20205;-69
2022/08/11 03:58:48;;;;;;;5.70;3.58;;;;;;;15.45;75.80;96667.97;5018790;28;20212;-70
2022/08/11 04:01:49;;;;;;;6.25;3.00;;;;;;;15.66;75.70;96678.53;5018668;28;20205;-69
2022/08/11 04:05:01;;;;;;;6.88;3.60;;;;;;;15.63;75.14;96685.03;5017748;28;20224;-69
2022/08/11 04:08:00;;;;;;;6.43;3.58;;;;;;;15.72;75.18;96683.03;4982904;28;20216;-69
2022/08/11 04:10:58;;;;;;;6.07;4.05;;;;;;;15.58;75.89;96673.34;5018203;28;20706;-70
2022/08/11 04:17:18;;;;;;;13.00;3.63;;;;;;;15.56;75.59;96676.22;4961798;28;20198;-69
2022/08/11 04:20:07;;;;;;;6.28;3.60;;;;;;;15.67;75.07;96677.47;5018432;28;20206;-69
2022/08/11 04:22:54;;;;;;;13.80;4.10;;;;;;;15.74;74.90;96675.69;5017900;28;20232;-70
2022/08/11 04:25:52;;;;;;;10.40;3.72;;;;;;;15.92;74.76;96671.44;5017978;28;20256;-69
2022/08/11 04:28:48;;;;;;;5.45;3.25;;;;;;;15.98;74.73;96678.66;5018355;28;20212;-69
2022/08/11 04:31:37;;;;;;;11.05;3.20;;;;;;;16.00;74.51;96674.78;5017883;28;20209;-69
2022/08/11 04:34:25;;;;;;;4.70;3.40;;;;;;;16.09;73.59;96678.09;5016761;28;20253;-69
2022/08/11 04:40:13;;;;;;;6.95;3.60;;;;;;;16.37;71.90;96670.78;5018012;28;20260;-70
2022/08/11 04:43:20;;;;;;;8.38;3.70;;;;;;;16.38;71.46;96670.63;5016548;28;20741;-70
2022/08/11 04:46:14;;;;;;;10.23;3.67;;;;;;;16.48;71.99;96671.00;5017648;28;20216;-70
2022/08/11 05:08:10;;;;;;;5.90;3.45;;;;;;;16.96;70.68;96683.13;5017254;28;20343;-70
2022/08/11 05:10:56;;;;;;;9.13;4.40;;;;;;;17.11;71.60;96677.38;5011617;28;20209;-69
2022/08/11 05:36:00;;;;;;;6.50;3.45;;;;;;;18.18;68.72;96676.72;5016881;28;20693;-70
2022/08/11 05:57:56;;;;;;;5.35;3.33;;;;;;;18.45;67.30;96682.50;5016192;28;20263;-70
2022/08/11 06:00:23;;;;;;;7.68;3.60;;;;;;;18.54;66.67;96678.53;5016624;28;20890;-71
2022/08/11 06:02:54;;;;;;;5.20;3.20;;;;;;;18.63;67.46;96671.09;5016406;28;20252;-69
2022/08/11 06:05:21;;;;;;;8.85;3.30;;;;;;;18.65;67.55;96672.53;5016409;28;20797;-70
2022/08/11 06:07:49;;;;;;;11.57;3.20;;;;;;;18.80;66.60;96674.88;5017119;28;20213;-70
2022/08/11 06:10:26;;;;;;;4.68;3.35;;;;;;;19.10;66.21;96679.38;5016904;28;20212;-70
2022/08/11 06:12:54;;;;;;;10.02;3.55;;;;;;;18.97;65.25;96679.47;5015299;28;20700;-70
2022/08/11 06:15:21;;;;;;;4.03;3.00;;;;;;;19.08;65.24;96678.78;5016518;28;20217;-70
2022/08/11 06:17:50;;;;;;;9.02;3.85;;;;;;;19.08;64.53;96682.28;5017425;28;20209;-69
2022/08/11 06:20:18;;;;;;;4.90;3.60;;;;;;;19.23;65.13;96679.28;5016607;28;20214;-69
2022/08/11 06:22:47;;;;;;;4.63;3.33;;;;;;;19.29;64.33;96678.41;5015543;28;20211;-69
2022/08/11 06:25:15;;;;;;;8.48;3.35;;;;;;;19.46;64.12;96674.13;5015954;28;20222;-70
2022/08/11 06:27:47;;;;;;;7.05;3.40;;;;;;;19.52;64.81;96667.88;5016072;28;20217;-70
2022/08/11 06:30:14;;;;;;;5.50;3.20;;;;;;;19.49;65.06;96665.63;5015902;28;20217;-68
2022/08/11 06:32:45;;;;;;;8.32;3.70;;;;;;;19.74;64.20;96672.56;5015386;28;20209;-69
2022/08/11 06:35:19;;;;;;;4.75;3.15;;;;;;;19.78;65.15;96685.28;5016200;28;20233;-69
2022/08/11 06:37:57;;;;;;;8.35;3.22;;;;;;;19.93;63.33;96683.06;5015969;28;20206;-69
2022/08/11 06:40:34;;;;;;;5.28;3.38;;;;;;;20.07;63.46;96679.19;5016234;28;20670;-70
2022/08/11 06:43:11;;;;;;;5.43;3.42;;;;;;;20.18;62.84;96675.78;5015512;28;20745;-70
2022/08/11 06:45:48;;;;;;;7.78;3.85;;;;;;;20.13;63.17;96674.81;5016452;28;20210;-70
2022/08/11 06:48:16;;;;;;;6.15;3.40;;;;;;;20.12;60.79;96676.66;5015843;28;20225;-70
2022/08/11 06:53:34;;;;;;;4.25;2.90;;;;;;;20.26;60.67;96681.63;5011714;28;20286;-70
2022/08/11 07:01:45;;;;;;;4.68;3.05;;;;;;;20.72;61.67;96678.31;5016343;28;20209;-69
2022/08/11 07:04:15;;;;;;;4.50;2.80;;;;;;;20.92;60.27;96685.81;5018334;28;20225;-69
2022/08/11 07:16:02;;;;;;;5.47;3.05;;;;;;;21.41;59.00;96673.88;5019254;28;20228;-69
2022/08/11 07:29:47;;;;;;;7.20;3.10;;;;;;;21.67;60.42;96674.25;5017959;28;20264;-71
2022/08/11 07:32:22;;;;;;;8.63;3.50;;;;;;;21.89;58.05;96673.41;5018128;28;20206;-70
2022/08/11 07:34:53;;;;;;;5.07;2.78;;;;;;;21.95;57.92;96660.91;5018230;28;20229;-69
2022/08/11 07:37:20;;;;;;;7.65;3.50;;;;;;;22.03;58.28;96665.91;5019351;28;20296;-71
2022/08/11 07:39:48;;;;;;;5.32;2.95;;;;;;;22.00;56.20;96671.75;5019075;28;21144;-69
2022/08/11 07:42:20;;;;;;;7.63;3.20;;;;;;;22.09;58.18;96663.91;5018448;28;20221;-71
2022/08/11 07:53:04;;;;;;;4.30;3.05;;;;;;;22.49;52.82;96655.84;5017864;28;20267;-72
2022/08/11 07:55:33;;;;;;;5.47;3.15;;;;;;;22.41;55.12;96657.03;5015663;28;20230;-69
2022/08/11 08:20:06;;;;;;;3.75;2.70;;;;;;;23.18;49.55;96648.22;5018136;28;20216;-71
2022/08/11 08:22:35;;;;;;;5.03;2.67;;;;;;;23.45;51.15;96644.63;5017267;28;20322;-70
2022/08/11 08:25:02;;;;;;;3.88;2.83;;;;;;;23.31;49.26;96646.03;5018484;28;20225;-69
2022/08/11 08:27:29;;;;;;;6.63;2.58;;;;;;;23.74;49.91;96654.19;5018381;28;20210;-70
2022/08/11 08:32:43;;;;;;;7.38;2.55;;;;;;;23.67;48.50;96648.97;5017262;28;20232;-70
2022/08/11 08:35:12;;;;;;;6.93;3.03;;;;;;;23.99;49.08;96650.81;5017760;28;20233;-70
2022/08/11 08:37:38;;;;;;;3.65;2.60;;;;;;;23.88;48.43;96656.31;5018065;28;20689;-71
2022/08/11 08:40:08;;;;;;;7.05;2.63;;;;;;;24.14;48.70;96660.94;5017810;28;20206;-70
2022/08/11 08:42:38;;;;;;;3.55;2.50;;;;;;;24.05;47.65;96654.38;5017449;28;20213;-69
2022/08/11 08:45:08;;;;;;;4.72;2.42;;;;;;;24.15;49.30;96657.19;5017580;28;20226;-70
2022/08/11 08:47:37;;;;;;;5.55;2.75;;;;;;;24.13;47.04;96653.91;5017686;28;20213;-69
2022/08/11 08:50:07;;;;;;;5.90;2.65;;;;;;;24.24;48.08;96661.06;5018144;28;20206;-70
2022/08/11 08:52:39;;;;;;;4.72;2.58;;;;;;;24.50;47.49;96658.44;5016865;28;20228;-71
2022/08/11 08:55:09;;;;;;;10.00;2.47;;;;;;;24.56;46.89;96650.13;5014678;28;20321;-71
2022/08/11 08:57:37;;;;;;;5.28;2.63;;;;;;;24.67;46.92;96654.56;5017653;28;20210;-71
2022/08/11 09:00:05;;;;;;;5.25;2.72;;;;;;;24.67;46.40;96656.47;5017702;28;20197;-70
2022/08/11 09:02:32;;;;;;;3.58;2.72;;;;;;;24.54;45.96;96653.34;5016826;28;20206;-73
2022/08/11 09:05:00;;;;;;;12.38;3.20;;;;;;;24.64;46.21;96663.19;5017304;28;20228;-72
2022/08/11 09:07:27;;;;;;;6.97;3.35;;;;;;;24.75;45.65;96654.09;5016469;28;20206;-69
2022/08/11 09:09:58;;;;;;;5.10;2.75;;;;;;;24.90;45.51;96659.66;5016916;28;20205;-70
2022/08/11 09:12:27;;;;;;;2.97;2.30;;;;;;;24.82;44.93;96649.34;5016065;28;20725;-70
2022/08/11 09:15:02;;;;;;;4.03;2.78;;;;;;;24.93;44.56;96651.03;5016213;28;20724;-70
2022/08/11 09:17:31;;;;;;;8.63;2.63;;;;;;;24.97;44.47;96651.34;5016639;28;20588;-72
2022/08/11 09:20:00;;;;;;;5.35;2.40;;;;;;;24.94;44.46;96649.97;5016473;28;20776;-70
2022/08/11 09:27:58;;;;;;;4.32;2.35;;;;;;;25.39;45.71;96656.63;5016204;28;20271;-71
2022/08/11 09:30:26;;;;;;;3.28;2.33;;;;;;;25.47;44.09;96655.28;5016809;28;20225;-70
2022/08/11 09:32:56;;;;;;;5.88;2.72;;;;;;;25.39;44.66;96659.31;5016513;28;20590;-71
2022/08/11 09:35:25;;;;;;;2.88;2.35;;;;;;;25.77;44.86;96655.53;5016740;28;20310;-71
2022/08/11 09:40:39;;;;;;;3.53;2.40;;;;;;;25.62;43.40;96655.41;5016793;28;20760;-70
2022/08/11 09:45:57;;;;;;;4.15;2.22;;;;;;;25.97;43.13;96651.84;5016709;28;20677;-72
2022/08/11 09:48:25;;;;;;;6.47;2.40;;;;;;;25.91;44.40;96655.59;5017355;28;20213;-71
2022/08/11 09:50:55;;;;;;;8.07;2.20;;;;;;;25.97;42.83;96649.16;5016202;28;20209;-72
2022/08/11 09:53:23;;;;;;;3.08;2.10;;;;;;;26.05;41.09;96651.34;5012131;28;20983;-70
2022/08/11 09:55:52;;;;;;;4.90;2.30;;;;;;;26.13;42.01;96650.88;5016813;28;20226;-71
2022/08/11 09:58:20;;;;;;;3.35;2.05;;;;;;;26.13;41.04;96652.75;5016580;28;20202;-72
2022/08/11 10:00:49;;;;;;;6.40;2.58;;;;;;;26.45;42.37;96648.84;5016528;28;20218;-70
2022/08/11 10:03:17;;;;;;;4.88;2.78;;;;;;;26.50;43.65;96643.44;5015721;28;20210;-70
2022/08/11 10:08:33;;;;;;;4.63;2.30;;;;;;;26.36;40.09;96642.31;5016329;28;20251;-70
2022/08/11 10:11:02;;;;;;;5.55;2.30;;;;;;;26.40;41.08;96646.16;5016287;28;20247;-72
2022/08/11 10:13:33;;;;;;;7.60;2.78;;;;;;;26.60;40.51;96648.88;5015940;28;20228;-71
2022/08/11 10:16:02;;;;;;;2.65;1.85;;;;;;;26.57;39.57;96638.63;5016284;28;20225;-70
2022/08/11 10:18:41;;;;;;;3.30;2.35;;;;;;;26.69;40.21;96639.16;5016532;28;20662;-70
2022/08/11 10:21:11;;;;;;;4.38;2.28;;;;;;;26.72;40.02;96635.94;5016215;28;20210;-70
2022/08/11 10:26:53;;;;;;;5.07;2.28;;;;;;;26.95;40.16;96627.31;5016579;28;20208;-69
2022/08/11 10:34:51;;;;;;;3.95;2.00;;;;;;;26.96;39.26;96626.25;5016359;28;20287;-69
2022/08/11 10:37:20;;;;;;;3.40;1.98;;;;;;;27.12;38.19;96626.78;5016338;28;20206;-67
2022/08/11 10:39:47;;;;;;;4.00;2.25;;;;;;;27.09;38.60;96621.94;5020216;28;20208;-70
2022/08/11 10:47:33;;;;;;;4.53;1.92;;;;;;;27.37;39.20;96621.38;5019925;28;20250;-69
2022/08/11 10:47:50;;;;;;;4.72;2.30;;;;;;;27.54;38.09;96626.53;5020480;28;20724;-68
2022/08/11 10:58:45;;;;;;;4.75;1.80;;;;;;;27.27;38.25;96604.34;5020197;28;20209;-69
2022/08/11 11:01:13;;;;;;;5.13;1.90;;;;;;;27.51;38.22;96608.91;5019701;28;20206;-70
2022/08/11 11:03:41;;;;;;;2.97;2.00;;;;;;;27.59;38.38;96604.88;5018689;28;20781;-70
2022/08/11 11:06:18;;;;;;;5.00;2.13;;;;;;;28.03;38.08;96595.78;5019961;28;20205;-67
2022/08/11 11:08:54;;;;;;;5.38;2.00;;;;;;;27.75;37.63;96599.94;5019936;28;20320;-70
2022/08/11 11:11:22;;;;;;;5.53;1.98;;;;;;;27.64;38.13;96600.25;5019243;28;20193;-69
2022/08/11 11:19:25;;;;;;;3.08;1.80;;;;;;;28.11;36.97;96585.19;5019328;28;21335;-68
2022/08/11 11:22:36;;;;;;;3.15;1.85;;;;;;;28.16;35.77;96581.69;5019400;28;20198;-67
2022/08/11 11:24:53;;;;;;;2.85;1.77;;;;;;;28.57;37.87;96581.19;5018893;28;20225;-70
2022/08/11 11:27:30;;;;;;;5.60;2.10;;;;;;;28.58;38.88;96580.91;5019393;28;20206;-69
2022/08/11 11:30:05;;;;;;;2.63;2.05;;;;;;;28.35;35.98;96584.28;5019060;28;20213;-68
2022/08/11 11:32:41;;;;;;;3.28;2.00;;;;;;;28.11;35.59;96570.84;5018488;28;20217;-69
2022/08/11 11:35:26;;;;;;;4.03;2.08;;;;;;;28.34;34.93;96581.84;5017821;28;20233;-69
2022/08/11 11:37:54;;;;;;;6.07;2.10;;;;;;;28.30;36.58;96575.38;5018771;28;20682;-69
2022/08/11 11:40:23;;;;;;;3.75;1.73;;;;;;;28.44;38.51;96570.97;5018005;28;20206;-67
2022/08/11 11:42:51;;;;;;;2.10;1.85;;;;;;;28.56;37.97;96561.38;5017315;28;20213;-70
2022/08/11 11:45:21;;;;;;;3.92;2.13;;;;;;;28.36;35.79;96580.50;5018332;28;20229;-69
2022/08/11 11:47:51;;;;;;;5.43;1.90;;;;;;;28.37;35.79;96571.28;5018355;28;20233;-70
2022/08/11 11:50:22;;;;;;;3.40;2.17;;;;;;;28.54;38.46;96565.47;5016957;28;20709;-69
2022/08/11 11:52:50;;;;;;;2.83;2.00;;;;;;;28.62;35.83;96556.75;5017305;28;20651;-67
2022/08/11 11:55:17;;;;;;;5.35;1.95;;;;;;;28.72;37.56;96564.81;5015854;28;20582;-69
2022/08/11 12:03:21;;;;;;;2.83;1.95;;;;;;;28.13;34.71;96566.75;5017348;28;20591;-67
2022/08/11 12:05:49;;;;;;;3.00;1.85;;;;;;;28.19;35.47;96559.44;5018404;28;20435;-67
2022/08/11 12:08:17;;;;;;;5.05;1.80;;;;;;;27.97;35.82;96561.69;5019306;28;20320;-68
2022/08/11 12:10:46;;;;;;;3.90;2.03;;;;;;;28.10;35.47;96559.16;5019163;28;20201;-69
2022/08/11 12:16:02;;;;;;;2.22;1.70;;;;;;;28.26;35.36;96563.47;5017996;28;20241;-68
2022/08/11 12:18:32;;;;;;;2.65;1.90;;;;;;;28.37;35.03;96563.13;5018373;28;20325;-69
2022/08/11 12:21:00;;;;;;;2.38;1.80;;;;;;;28.49;35.34;96552.75;5017932;28;20951;-70
2022/08/11 12:29:00;;;;;;;3.50;1.80;;;;;;;28.50;34.81;96543.53;5014747;28;20241;-68
2022/08/11 12:31:29;;;;;;;4.40;1.85;;;;;;;28.65;35.11;96540.69;5017323;28;20214;-70
2022/08/11 12:34:01;;;;;;;2.42;1.80;;;;;;;28.61;33.39;96538.84;5016151;28;20628;-67
2022/08/11 12:36:28;;;;;;;4.90;1.75;;;;;;;28.54;34.30;96533.72;5016882;28;20264;-68
2022/08/11 12:38:55;;;;;;;2.95;1.80;;;;;;;28.75;33.48;96529.00;5016792;28;20201;-68
2022/08/11 12:47:05;;;;;;;3.17;1.70;;;;;;;28.63;34.52;96531.25;5015817;28;20697;-67
2022/08/11 12:52:26;;;;;;;1.98;1.73;;;;;;;28.86;34.01;96534.06;5015953;28;20236;-68
2022/08/11 12:55:02;;;;;;;4.03;2.00;;;;;;;28.65;35.48;96524.41;5013392;28;20233;-69
2022/08/11 13:05:54;;;;;;;3.47;1.65;;;;;;;28.38;34.78;96515.94;5015913;28;20221;-70
2022/08/11 13:08:23;;;;;;;5.43;2.10;;;;;;;28.46;34.70;96509.09;5016110;28;20217;-69
2022/08/11 13:13:37;;;;;;;2.53;1.58;;;;;;;28.26;35.83;96506.53;5016109;28;20228;-68
2022/08/11 13:16:06;;;;;;;2.80;1.70;;;;;;;28.48;35.65;96510.44;5015891;28;20224;-69
2022/08/11 13:18:34;;;;;;;4.72;1.90;;;;;;;28.51;34.11;96515.31;5016349;28;20208;-70
2022/08/11 13:21:02;;;;;;;2.70;1.70;;;;;;;28.34;34.97;96509.44;5018777;28;20209;-71
2022/08/11 13:23:29;;;;;;;2.28;1.70;;;;;;;28.89;35.78;96505.56;5016364;28;20214;-70
2022/08/11 13:25:56;;;;;;;3.55;1.80;;;;;;;29.00;33.19;96510.59;5016558;28;20206;-69
2022/08/11 13:28:23;;;;;;;6.60;1.77;;;;;;;28.98;32.15;96501.94;5016998;28;20240;-69
2022/08/11 13:33:41;;;;;;;4.53;1.80;;;;;;;29.35;32.62;96497.50;5015754;28;20490;-70
2022/08/11 13:36:08;;;;;;;4.63;1.52;;;;;;;29.36;33.10;96492.91;5015684;28;20699;-71
2022/08/11 13:38:36;;;;;;;4.82;1.88;;;;;;;29.73;34.17;96483.75;5012667;28;20202;-67
2022/08/11 13:41:36;;;;;;;2.30;1.55;;;;;;;29.47;33.37;96497.09;5016066;28;20209;-69
2022/08/11 13:43:52;;;;;;;7.38;1.77;;;;;;;29.40;32.73;96486.59;5015014;28;20639;-67
2022/08/11 13:46:23;;;;;;;2.60;1.88;;;;;;;29.46;32.97;96487.38;5016582;28;20610;-70
2022/08/11 13:48:52;;;;;;;1.65;1.40;;;;;;;29.75;34.42;96480.75;5016102;28;20198;-69
2022/08/11 13:51:33;;;;;;;3.28;1.83;;;;;;;29.87;31.94;96483.88;5015803;28;20444;-70
2022/08/11 13:54:02;;;;;;;4.68;2.00;;;;;;;30.20;31.86;96478.25;5015274;28;20473;-69
2022/08/11 13:56:29;;;;;;;2.28;1.45;;;;;;;30.10;33.36;96472.97;5015749;28;20233;-70
2022/08/11 13:58:57;;;;;;;3.95;1.80;;;;;;;30.01;35.82;96477.44;5015768;28;20198;-70
2022/08/11 14:01:28;;;;;;;3.72;1.60;;;;;;;30.26;33.17;96471.66;5016028;28;20202;-69
2022/08/11 14:04:03;;;;;;;2.25;1.75;;;;;;;29.84;32.10;96479.00;5015876;28;20221;-70
2022/08/11 14:06:30;;;;;;;5.03;1.90;;;;;;;30.03;32.52;96468.97;5015875;28;20193;-69
2022/08/11 14:08:58;;;;;;;2.80;1.95;;;;;;;29.94;33.83;96468.03;5015603;28;20202;-68
2022/08/11 14:14:16;;;;;;;4.88;1.90;;;;;;;29.81;33.47;96464.09;5018742;28;20237;-69
2022/08/11 14:16:44;;;;;;;2.42;1.70;;;;;;;29.50;31.12;96477.53;5019656;28;20395;-67
2022/08/11 14:19:14;;;;;;;3.92;1.95;;;;;;;29.89;30.45;96468.91;5020317;28;20199;-69
2022/08/11 14:24:28;;;;;;;5.07;1.77;;;;;;;30.03;29.87;96458.94;5019594;28;20637;-69
2022/08/11 14:26:55;;;;;;;2.35;1.45;;;;;;;30.65;30.58;96458.53;5019859;28;20198;-70
2022/08/11 14:29:26;;;;;;;4.00;1.70;;;;;;;30.93;31.81;96461.88;5018878;28;20598;-70
2022/08/11 14:31:55;;;;;;;4.13;1.90;;;;;;;31.15;30.64;96458.50;5017067;28;20201;-68
2022/08/11 14:34:28;;;;;;;2.38;1.60;;;;;;;30.78;30.60;96461.31;5019800;28;20225;-70
2022/08/11 14:36:57;;;;;;;1.48;1.33;;;;;;;30.75;31.15;96461.09;5020349;28;20217;-71
2022/08/11 14:39:26;;;;;;;3.58;1.70;;;;;;;30.23;30.39;96455.91;5019983;28;20213;-70
2022/08/11 14:47:29;;;;;;;4.38;1.60;;;;;;;30.80;30.39;96455.59;5019716;28;20224;-68
2022/08/11 14:49:59;;;;;;;4.72;1.70;;;;;;;30.88;29.91;96456.50;5020418;28;20201;-70
2022/08/11 14:52:27;;;;;;;3.15;1.67;;;;;;;31.12;29.02;96442.75;5019337;28;20202;-70
2022/08/11 14:57:41;;;;;;;2.88;1.50;;;;;;;30.96;28.97;96455.06;5020487;28;20204;-68
2022/08/11 15:00:11;;;;;;;4.15;1.50;;;;;;;31.35;28.78;96448.03;5019955;28;20198;-70
2022/08/11 15:05:26;;;;;;;4.30;1.38;;;;;;;30.75;28.29;96444.78;5019838;28;20256;-71
2022/08/11 15:07:54;;;;;;;2.33;1.58;;;;;;;31.40;30.05;96439.75;5020064;28;20194;-68
2022/08/11 15:10:22;;;;;;;2.65;1.58;;;;;;;31.46;30.52;96437.75;5018533;28;20206;-70
2022/08/11 15:12:49;;;;;;;4.13;1.70;;;;;;;31.75;28.96;96433.63;5018266;28;20204;-67
2022/08/11 15:18:05;;;;;;;2.83;1.70;;;;;;;31.11;28.17;96439.25;5018654;28;20209;-69
2022/08/11 15:26:10;;;;;;;2.38;1.73;;;;;;;31.86;28.28;96426.84;5018656;28;20205;-70
2022/08/11 15:45:47;;;;;;;2.85;1.63;;;;;;;32.82;26.68;96406.03;5019613;28;20224;-69
2022/08/11 15:48:18;;;;;;;2.30;1.45;;;;;;;32.94;28.93;96398.06;5017861;28;20267;-69
2022/08/11 15:50:50;;;;;;;3.40;1.50;;;;;;;33.43;25.92;96393.16;5018098;28;20208;-70
2022/08/11 15:53:26;;;;;;;3.25;1.40;;;;;;;34.57;24.67;96400.63;5018767;28;20208;-70
2022/08/11 15:55:55;;;;;;;3.38;1.45;;;;;;;34.95;24.95;96402.31;5018752;28;20241;-70
2022/08/11 16:04:11;;;;;;;2.28;1.30;;;;;;;33.10;24.76;96394.63;5018286;28;20323;-71
2022/08/11 16:06:44;;;;;;;5.43;1.60;;;;;;;33.76;26.49;96397.94;5018579;28;20288;-70
2022/08/11 16:09:14;;;;;;;1.77;1.42;;;;;;;35.02;23.42;96399.09;5019106;28;20212;-69
2022/08/11 16:11:43;;;;;;;3.65;1.30;;;;;;;36.11;22.96;96390.38;5018553;28;20241;-69
2022/08/11 16:16:58;;;;;;;2.00;1.33;;;;;;;35.53;21.66;96394.28;5018870;28;20275;-71
2022/08/11 16:19:27;;;;;;;2.28;1.20;;;;;;;35.75;22.32;96392.03;5018493;28;20209;-70
2022/08/11 16:21:56;;;;;;;2.35;1.10;;;;;;;35.36;21.95;96395.13;5018430;28;20256;-71
2022/08/11 16:24:25;;;;;;;1.83;1.30;;;;;;;35.61;22.51;96394.22;5017755;28;20225;-71
2022/08/11 16:26:54;;;;;;;2.10;1.00;;;;;;;35.80;23.22;96396.53;5018516;28;20212;-71
2022/08/11 16:29:23;;;;;;;3.42;1.20;;;;;;;35.84;21.56;96394.75;5017823;28;20233;-70
2022/08/11 16:40:08;;;;;;;6.20;1.30;;;;;;;35.36;22.10;96377.84;5018065;28;20720;-71
2022/08/11 16:48:06;;;;;;;2.30;1.05;;;;;;;34.49;22.25;96376.00;4986673;28;20288;-71
2022/08/11 16:50:33;;;;;;;2.13;1.30;;;;;;;34.86;23.57;96378.81;5017519;28;20216;-70
2022/08/11 16:52:59;;;;;;;4.43;1.10;;;;;;;35.40;21.65;96379.63;5017166;28;20212;-70
2022/08/11 16:55:33;;;;;;;1.55;1.10;;;;;;;35.30;21.23;96379.97;5017944;28;20232;-70
2022/08/11 17:00:45;;;;;;;2.65;1.17;;;;;;;34.66;22.17;96376.75;5016652;28;20213;-69